Skip Navigation LinksHome page > Weather > Current weather Skip Navigation Links

Current Weather

Chicago O'Hare Intl, Chicago

For information only: do not use for flight planning or navigation.
Latest weather
Observation time Tuesday, July 7, 2015 5:51 AM CDT
Local time Tuesday, July 7, 2015 6:20 AM CDT
Flight conditions Instrument Meteorological Conditions
Winds
Wind direction North-Northeast (20°)
Wind speed 21 mph
Wind gusting to 26 mph
Visibility 2 mi.
Present weather rain, mist
Sky condition
Ceiling 1,000 ft. broken clouds
Cloud layer broken clouds 1,000 ft.
Cloud layer overcast 2,500 ft.
Temperature 59°F
Dewpoint 57°F
Altimeter 29.91 in.Hg
Derived measurements
Relative humidity 94%
Density altitude 902 ft.
METAR KORD 071051Z 02018G23KT 2SM RA BR BKN010 OVC025 15/14 A2991

Settings

Location code

InnerDrive.Weather 4.0.5567.0 Release CLR 4.0.30319.34014
Copyright ©2015 Inner Drive Technology. All rights reserved. Portions Copyright ©1986-2015 David Braverman.

Find weather

Site navigation


Skip Navigation Links

Place info

Page info

PayPal - The safer, easier way to pay online!

Return home.

Copyright ©2015 Inner Drive Technology. Purveyors of fine, hand-crafted computer software. Page printed 2015-07-07T11:20:13 UTC.